sensor_id;sensor_type;location;lat;lon;timestamp;temperature;humidity
52543;DHT22;38449;52.696;6.186;2022-07-09T00:02:17;17.10;99.90
52543;DHT22;38449;52.696;6.186;2022-07-09T00:04:43;17.10;99.90
52543;DHT22;38449;52.696;6.186;2022-07-09T00:07:08;17.10;99.90
52543;DHT22;38449;52.696;6.186;2022-07-09T00:09:34;17.00;99.90
52543;DHT22;38449;52.696;6.186;2022-07-09T00:12:00;17.00;99.90
52543;DHT22;38449;52.696;6.186;2022-07-09T00:14:25;17.00;99.90
52543;DHT22;38449;52.696;6.186;2022-07-09T00:16:51;17.00;99.90
52543;DHT22;38449;52.696;6.186;2022-07-09T00:19:16;17.00;99.90
52543;DHT22;38449;52.696;6.186;2022-07-09T00:21:42;16.90;99.90
52543;DHT22;38449;52.696;6.186;2022-07-09T00:24:08;16.90;99.90
52543;DHT22;38449;52.696;6.186;2022-07-09T00:26:34;16.90;99.90
52543;DHT22;38449;52.696;6.186;2022-07-09T00:29:00;16.80;99.90
52543;DHT22;38449;52.696;6.186;2022-07-09T00:31:25;16.80;99.90
52543;DHT22;38449;52.696;6.186;2022-07-09T00:33:51;16.80;99.90
52543;DHT22;38449;52.696;6.186;2022-07-09T00:36:20;16.70;99.90
52543;DHT22;38449;52.696;6.186;2022-07-09T00:38:45;16.70;99.90
52543;DHT22;38449;52.696;6.186;2022-07-09T00:41:12;16.70;99.90
52543;DHT22;38449;52.696;6.186;2022-07-09T00:43:38;16.60;99.90
52543;DHT22;38449;52.696;6.186;2022-07-09T00:46:03;16.70;99.90
52543;DHT22;38449;52.696;6.186;2022-07-09T00:48:29;16.70;99.90
52543;DHT22;38449;52.696;6.186;2022-07-09T00:50:54;16.70;99.90
52543;DHT22;38449;52.696;6.186;2022-07-09T00:53:23;16.70;99.90
52543;DHT22;38449;52.696;6.186;2022-07-09T00:55:51;16.70;99.90
52543;DHT22;38449;52.696;6.186;2022-07-09T00:58:18;16.70;99.90
52543;DHT22;38449;52.696;6.186;2022-07-09T01:00:45;16.70;99.90
52543;DHT22;38449;52.696;6.186;2022-07-09T01:03:11;16.60;99.90
52543;DHT22;38449;52.696;6.186;2022-07-09T01:05:36;16.70;99.90
52543;DHT22;38449;52.696;6.186;2022-07-09T01:08:06;16.70;99.90
52543;DHT22;38449;52.696;6.186;2022-07-09T01:10:33;16.60;99.90
52543;DHT22;38449;52.696;6.186;2022-07-09T01:12:59;16.60;99.90
52543;DHT22;38449;52.696;6.186;2022-07-09T01:15:26;16.60;99.90
52543;DHT22;38449;52.696;6.186;2022-07-09T01:17:51;16.60;99.90
52543;DHT22;38449;52.696;6.186;2022-07-09T01:20:21;16.60;99.90
52543;DHT22;38449;52.696;6.186;2022-07-09T01:22:47;16.50;99.90
52543;DHT22;38449;52.696;6.186;2022-07-09T01:25:16;16.50;99.90
52543;DHT22;38449;52.696;6.186;2022-07-09T01:27:42;16.50;99.90
52543;DHT22;38449;52.696;6.186;2022-07-09T01:30:08;16.40;99.90
52543;DHT22;38449;52.696;6.186;2022-07-09T01:32:35;16.40;99.90
52543;DHT22;38449;52.696;6.186;2022-07-09T01:35:01;16.50;99.90
52543;DHT22;38449;52.696;6.186;2022-07-09T01:37:27;16.50;99.90
52543;DHT22;38449;52.696;6.186;2022-07-09T01:39:52;16.50;99.90
52543;DHT22;38449;52.696;6.186;2022-07-09T01:42:21;16.50;99.90
52543;DHT22;38449;52.696;6.186;2022-07-09T01:44:47;16.50;99.90
52543;DHT22;38449;52.696;6.186;2022-07-09T01:47:13;16.60;99.90
52543;DHT22;38449;52.696;6.186;2022-07-09T01:49:42;16.60;99.90
52543;DHT22;38449;52.696;6.186;2022-07-09T01:52:09;16.60;99.90
52543;DHT22;38449;52.696;6.186;2022-07-09T01:54:34;16.60;99.90
52543;DHT22;38449;52.696;6.186;2022-07-09T01:57:00;16.60;99.90
52543;DHT22;38449;52.696;6.186;2022-07-09T01:59:26;16.60;99.90
52543;DHT22;38449;52.696;6.186;2022-07-09T02:01:51;16.60;99.90
52543;DHT22;38449;52.696;6.186;2022-07-09T02:04:17;16.70;99.90
52543;DHT22;38449;52.696;6.186;2022-07-09T02:06:43;16.70;99.90
52543;DHT22;38449;52.696;6.186;2022-07-09T02:09:08;16.70;99.90
52543;DHT22;38449;52.696;6.186;2022-07-09T02:11:34;16.70;99.90
52543;DHT22;38449;52.696;6.186;2022-07-09T02:13:59;16.70;99.90
52543;DHT22;38449;52.696;6.186;2022-07-09T02:16:25;16.70;99.90
52543;DHT22;38449;52.696;6.186;2022-07-09T02:18:50;16.60;99.90
52543;DHT22;38449;52.696;6.186;2022-07-09T02:21:16;16.60;99.90
52543;DHT22;38449;52.696;6.186;2022-07-09T02:23:42;16.70;99.90
52543;DHT22;38449;52.696;6.186;2022-07-09T02:26:08;16.70;99.90
52543;DHT22;38449;52.696;6.186;2022-07-09T02:28:34;16.70;99.90
52543;DHT22;38449;52.696;6.186;2022-07-09T02:30:59;16.70;99.90
52543;DHT22;38449;52.696;6.186;2022-07-09T02:33:25;16.80;99.90
52543;DHT22;38449;52.696;6.186;2022-07-09T02:35:51;16.80;99.90
52543;DHT22;38449;52.696;6.186;2022-07-09T02:38:16;16.70;99.90
52543;DHT22;38449;52.696;6.186;2022-07-09T02:40:42;16.80;99.90
52543;DHT22;38449;52.696;6.186;2022-07-09T02:43:08;16.80;99.90
52543;DHT22;38449;52.696;6.186;2022-07-09T02:45:33;16.70;99.90
52543;DHT22;38449;52.696;6.186;2022-07-09T02:47:59;16.80;99.90
52543;DHT22;38449;52.696;6.186;2022-07-09T02:50:25;16.70;99.90
52543;DHT22;38449;52.696;6.186;2022-07-09T02:52:50;16.70;99.90
52543;DHT22;38449;52.696;6.186;2022-07-09T02:55:16;16.70;99.90
52543;DHT22;38449;52.696;6.186;2022-07-09T02:57:42;16.80;99.90
52543;DHT22;38449;52.696;6.186;2022-07-09T03:00:08;16.70;99.90
52543;DHT22;38449;52.696;6.186;2022-07-09T03:02:33;16.70;99.90
52543;DHT22;38449;52.696;6.186;2022-07-09T03:04:59;16.80;99.90
52543;DHT22;38449;52.696;6.186;2022-07-09T03:07:26;16.80;99.90
52543;DHT22;38449;52.696;6.186;2022-07-09T03:09:51;16.70;99.90
52543;DHT22;38449;52.696;6.186;2022-07-09T03:12:17;16.80;99.90
52543;DHT22;38449;52.696;6.186;2022-07-09T03:14:44;16.80;99.90
52543;DHT22;38449;52.696;6.186;2022-07-09T03:17:09;16.80;99.90
52543;DHT22;38449;52.696;6.186;2022-07-09T03:19:35;16.70;99.90
52543;DHT22;38449;52.696;6.186;2022-07-09T03:22:00;16.80;99.90
52543;DHT22;38449;52.696;6.186;2022-07-09T03:24:26;16.80;99.90
52543;DHT22;38449;52.696;6.186;2022-07-09T03:26:52;16.70;99.90
52543;DHT22;38449;52.696;6.186;2022-07-09T03:29:17;16.70;99.90
52543;DHT22;38449;52.696;6.186;2022-07-09T03:31:43;16.80;99.90
52543;DHT22;38449;52.696;6.186;2022-07-09T03:34:09;16.90;99.90
52543;DHT22;38449;52.696;6.186;2022-07-09T03:36:34;16.80;99.90
52543;DHT22;38449;52.696;6.186;2022-07-09T03:39:00;16.80;99.90
52543;DHT22;38449;52.696;6.186;2022-07-09T03:41:25;16.90;99.90
52543;DHT22;38449;52.696;6.186;2022-07-09T03:43:51;16.80;99.90
52543;DHT22;38449;52.696;6.186;2022-07-09T03:46:17;16.90;99.90
52543;DHT22;38449;52.696;6.186;2022-07-09T03:48:43;16.90;99.90
52543;DHT22;38449;52.696;6.186;2022-07-09T03:51:08;16.90;99.90
52543;DHT22;38449;52.696;6.186;2022-07-09T03:53:34;17.00;99.90
52543;DHT22;38449;52.696;6.186;2022-07-09T03:56:01;17.00;99.90
52543;DHT22;38449;52.696;6.186;2022-07-09T03:58:27;17.00;99.90
52543;DHT22;38449;52.696;6.186;2022-07-09T04:00:52;17.00;99.90
52543;DHT22;38449;52.696;6.186;2022-07-09T04:03:18;17.00;99.90
52543;DHT22;38449;52.696;6.186;2022-07-09T04:05:45;17.00;99.90
52543;DHT22;38449;52.696;6.186;2022-07-09T04:08:11;17.00;99.90
52543;DHT22;38449;52.696;6.186;2022-07-09T04:10:36;17.00;99.90
52543;DHT22;38449;52.696;6.186;2022-07-09T04:13:02;17.00;99.90
52543;DHT22;38449;52.696;6.186;2022-07-09T04:15:28;17.00;99.90
52543;DHT22;38449;52.696;6.186;2022-07-09T04:17:53;17.00;99.90
52543;DHT22;38449;52.696;6.186;2022-07-09T04:20:19;17.10;99.90
52543;DHT22;38449;52.696;6.186;2022-07-09T04:22:45;17.10;99.90
52543;DHT22;38449;52.696;6.186;2022-07-09T04:25:10;17.00;99.90
52543;DHT22;38449;52.696;6.186;2022-07-09T04:27:36;17.10;99.90
52543;DHT22;38449;52.696;6.186;2022-07-09T04:30:06;17.00;99.90
52543;DHT22;38449;52.696;6.186;2022-07-09T04:32:31;17.00;99.90
52543;DHT22;38449;52.696;6.186;2022-07-09T04:34:57;17.10;99.90
52543;DHT22;38449;52.696;6.186;2022-07-09T04:37:23;17.10;99.90
52543;DHT22;38449;52.696;6.186;2022-07-09T04:39:48;17.10;99.90
52543;DHT22;38449;52.696;6.186;2022-07-09T04:42:14;17.20;99.90
52543;DHT22;38449;52.696;6.186;2022-07-09T04:44:40;17.30;99.90
52543;DHT22;38449;52.696;6.186;2022-07-09T04:47:07;17.30;99.90
52543;DHT22;38449;52.696;6.186;2022-07-09T04:49:33;17.30;99.90
52543;DHT22;38449;52.696;6.186;2022-07-09T04:51:59;17.30;99.90
52543;DHT22;38449;52.696;6.186;2022-07-09T04:54:24;17.40;99.90
52543;DHT22;38449;52.696;6.186;2022-07-09T04:56:50;17.40;99.90
52543;DHT22;38449;52.696;6.186;2022-07-09T04:59:16;17.30;99.90
52543;DHT22;38449;52.696;6.186;2022-07-09T05:01:41;17.50;99.90
52543;DHT22;38449;52.696;6.186;2022-07-09T05:04:07;17.60;99.90
52543;DHT22;38449;52.696;6.186;2022-07-09T05:06:33;17.90;99.90
52543;DHT22;38449;52.696;6.186;2022-07-09T05:08:59;18.40;99.90
52543;DHT22;38449;52.696;6.186;2022-07-09T05:11:24;18.90;99.90
52543;DHT22;38449;52.696;6.186;2022-07-09T05:13:51;19.40;99.90
52543;DHT22;38449;52.696;6.186;2022-07-09T05:16:16;19.50;99.90
52543;DHT22;38449;52.696;6.186;2022-07-09T05:18:42;19.30;99.90
52543;DHT22;38449;52.696;6.186;2022-07-09T05:21:08;19.20;99.90
52543;DHT22;38449;52.696;6.186;2022-07-09T05:23:34;19.00;99.90
52543;DHT22;38449;52.696;6.186;2022-07-09T05:26:00;18.90;99.90
52543;DHT22;38449;52.696;6.186;2022-07-09T05:28:26;18.80;99.90
52543;DHT22;38449;52.696;6.186;2022-07-09T05:30:51;18.60;99.90
52543;DHT22;38449;52.696;6.186;2022-07-09T05:33:17;18.50;99.90
52543;DHT22;38449;52.696;6.186;2022-07-09T05:35:44;18.40;99.90
52543;DHT22;38449;52.696;6.186;2022-07-09T05:38:10;18.40;99.90
52543;DHT22;38449;52.696;6.186;2022-07-09T05:40:36;18.30;99.90
52543;DHT22;38449;52.696;6.186;2022-07-09T05:43:01;18.30;99.90
52543;DHT22;38449;52.696;6.186;2022-07-09T05:45:27;18.30;99.90
52543;DHT22;38449;52.696;6.186;2022-07-09T05:47:53;18.40;99.90
52543;DHT22;38449;52.696;6.186;2022-07-09T05:50:19;18.50;99.90
52543;DHT22;38449;52.696;6.186;2022-07-09T05:52:44;18.70;99.90
52543;DHT22;38449;52.696;6.186;2022-07-09T05:55:11;18.90;99.90
52543;DHT22;38449;52.696;6.186;2022-07-09T05:57:37;19.10;99.90
52543;DHT22;38449;52.696;6.186;2022-07-09T06:00:05;19.20;99.90
52543;DHT22;38449;52.696;6.186;2022-07-09T06:02:32;19.30;99.90
52543;DHT22;38449;52.696;6.186;2022-07-09T06:04:58;19.40;99.90
52543;DHT22;38449;52.696;6.186;2022-07-09T06:07:23;19.30;99.90
52543;DHT22;38449;52.696;6.186;2022-07-09T06:09:49;19.40;99.90
52543;DHT22;38449;52.696;6.186;2022-07-09T06:12:15;19.40;99.90
52543;DHT22;38449;52.696;6.186;2022-07-09T06:14:40;19.30;99.90
52543;DHT22;38449;52.696;6.186;2022-07-09T06:17:06;19.30;99.90
52543;DHT22;38449;52.696;6.186;2022-07-09T06:19:35;19.20;99.90
52543;DHT22;38449;52.696;6.186;2022-07-09T06:22:02;19.10;99.90
52543;DHT22;38449;52.696;6.186;2022-07-09T06:24:28;19.00;99.90
52543;DHT22;38449;52.696;6.186;2022-07-09T06:26:55;19.00;99.90
52543;DHT22;38449;52.696;6.186;2022-07-09T06:29:21;18.90;99.90
52543;DHT22;38449;52.696;6.186;2022-07-09T06:31:47;18.90;99.90
52543;DHT22;38449;52.696;6.186;2022-07-09T06:34:13;18.90;99.90
52543;DHT22;38449;52.696;6.186;2022-07-09T06:36:39;19.00;99.90
52543;DHT22;38449;52.696;6.186;2022-07-09T06:39:05;18.90;99.90
52543;DHT22;38449;52.696;6.186;2022-07-09T06:41:50;18.90;99.90
52543;DHT22;38449;52.696;6.186;2022-07-09T06:44:15;19.00;99.90
52543;DHT22;38449;52.696;6.186;2022-07-09T06:46:41;19.00;99.90
52543;DHT22;38449;52.696;6.186;2022-07-09T06:49:06;19.00;99.90
52543;DHT22;38449;52.696;6.186;2022-07-09T06:51:32;19.00;99.90
52543;DHT22;38449;52.696;6.186;2022-07-09T06:53:58;19.00;99.90
52543;DHT22;38449;52.696;6.186;2022-07-09T06:56:25;19.00;99.90
52543;DHT22;38449;52.696;6.186;2022-07-09T06:58:51;19.10;99.90
52543;DHT22;38449;52.696;6.186;2022-07-09T07:01:16;19.10;99.90
52543;DHT22;38449;52.696;6.186;2022-07-09T07:03:42;19.10;99.90
52543;DHT22;38449;52.696;6.186;2022-07-09T07:06:07;19.20;99.90
52543;DHT22;38449;52.696;6.186;2022-07-09T07:08:33;19.30;99.90
52543;DHT22;38449;52.696;6.186;2022-07-09T07:10:59;19.30;99.90
52543;DHT22;38449;52.696;6.186;2022-07-09T07:13:25;19.30;99.90
52543;DHT22;38449;52.696;6.186;2022-07-09T07:15:50;19.30;99.90
52543;DHT22;38449;52.696;6.186;2022-07-09T07:18:16;19.40;99.90
52543;DHT22;38449;52.696;6.186;2022-07-09T07:20:45;19.50;99.90
52543;DHT22;38449;52.696;6.186;2022-07-09T07:23:12;19.60;99.90
52543;DHT22;38449;52.696;6.186;2022-07-09T07:25:37;19.70;99.90
52543;DHT22;38449;52.696;6.186;2022-07-09T07:28:03;19.80;99.90
52543;DHT22;38449;52.696;6.186;2022-07-09T07:30:30;19.80;99.90
52543;DHT22;38449;52.696;6.186;2022-07-09T07:32:59;19.70;99.90
52543;DHT22;38449;52.696;6.186;2022-07-09T07:35:24;19.80;99.90
52543;DHT22;38449;52.696;6.186;2022-07-09T07:37:50;20.00;99.90
52543;DHT22;38449;52.696;6.186;2022-07-09T07:40:16;20.00;99.90
52543;DHT22;38449;52.696;6.186;2022-07-09T07:42:41;20.20;99.90
52543;DHT22;38449;52.696;6.186;2022-07-09T07:45:07;20.20;99.90
52543;DHT22;38449;52.696;6.186;2022-07-09T07:47:33;20.10;99.90
52543;DHT22;38449;52.696;6.186;2022-07-09T07:49:59;20.10;99.90
52543;DHT22;38449;52.696;6.186;2022-07-09T07:52:25;20.10;99.90
52543;DHT22;38449;52.696;6.186;2022-07-09T07:54:51;20.00;99.90
52543;DHT22;38449;52.696;6.186;2022-07-09T07:57:16;20.00;99.90
52543;DHT22;38449;52.696;6.186;2022-07-09T07:59:42;19.90;99.90
52543;DHT22;38449;52.696;6.186;2022-07-09T08:02:07;19.90;99.90
52543;DHT22;38449;52.696;6.186;2022-07-09T08:04:33;19.90;99.90
52543;DHT22;38449;52.696;6.186;2022-07-09T08:06:59;20.00;99.90
52543;DHT22;38449;52.696;6.186;2022-07-09T08:09:24;20.00;99.90
52543;DHT22;38449;52.696;6.186;2022-07-09T08:11:50;20.10;99.90
52543;DHT22;38449;52.696;6.186;2022-07-09T08:14:15;20.10;99.90
52543;DHT22;38449;52.696;6.186;2022-07-09T08:16:41;20.20;99.90
52543;DHT22;38449;52.696;6.186;2022-07-09T08:19:07;20.30;99.90
52543;DHT22;38449;52.696;6.186;2022-07-09T08:21:32;20.40;99.90
52543;DHT22;38449;52.696;6.186;2022-07-09T08:23:58;20.30;99.90
52543;DHT22;38449;52.696;6.186;2022-07-09T08:26:26;20.40;99.90
52543;DHT22;38449;52.696;6.186;2022-07-09T08:28:52;20.40;99.90
52543;DHT22;38449;52.696;6.186;2022-07-09T08:31:19;20.40;99.90
52543;DHT22;38449;52.696;6.186;2022-07-09T08:33:45;20.40;99.90
52543;DHT22;38449;52.696;6.186;2022-07-09T08:36:11;20.40;99.90
52543;DHT22;38449;52.696;6.186;2022-07-09T08:38:37;20.40;99.90
52543;DHT22;38449;52.696;6.186;2022-07-09T08:41:06;20.40;99.90
52543;DHT22;38449;52.696;6.186;2022-07-09T08:43:33;20.30;99.90
52543;DHT22;38449;52.696;6.186;2022-07-09T08:46:00;20.20;99.90
52543;DHT22;38449;52.696;6.186;2022-07-09T08:48:25;20.10;99.90
52543;DHT22;38449;52.696;6.186;2022-07-09T08:50:51;20.20;99.90
52543;DHT22;38449;52.696;6.186;2022-07-09T08:53:18;20.30;99.90
52543;DHT22;38449;52.696;6.186;2022-07-09T08:55:47;20.50;99.90
52543;DHT22;38449;52.696;6.186;2022-07-09T08:58:14;20.70;99.90
52543;DHT22;38449;52.696;6.186;2022-07-09T09:00:40;20.80;99.90
52543;DHT22;38449;52.696;6.186;2022-07-09T09:03:06;20.90;99.90
52543;DHT22;38449;52.696;6.186;2022-07-09T09:05:33;21.00;99.90
52543;DHT22;38449;52.696;6.186;2022-07-09T09:07:59;21.10;99.90
52543;DHT22;38449;52.696;6.186;2022-07-09T09:10:28;21.00;99.90
52543;DHT22;38449;52.696;6.186;2022-07-09T09:12:58;21.10;99.90
52543;DHT22;38449;52.696;6.186;2022-07-09T09:15:24;21.20;99.90
52543;DHT22;38449;52.696;6.186;2022-07-09T09:17:51;21.20;99.90
52543;DHT22;38449;52.696;6.186;2022-07-09T09:20:17;21.10;99.90
52543;DHT22;38449;52.696;6.186;2022-07-09T09:22:53;21.00;99.90
52543;DHT22;38449;52.696;6.186;2022-07-09T09:25:21;21.00;99.90
52543;DHT22;38449;52.696;6.186;2022-07-09T09:27:53;20.90;99.90
52543;DHT22;38449;52.696;6.186;2022-07-09T09:30:19;20.80;99.90
52543;DHT22;38449;52.696;6.186;2022-07-09T09:32:57;20.90;99.90
52543;DHT22;38449;52.696;6.186;2022-07-09T09:35:34;21.10;99.90
52543;DHT22;38449;52.696;6.186;2022-07-09T09:38:00;21.20;99.90
52543;DHT22;38449;52.696;6.186;2022-07-09T09:40:25;21.30;99.90
52543;DHT22;38449;52.696;6.186;2022-07-09T09:42:52;21.30;99.90
52543;DHT22;38449;52.696;6.186;2022-07-09T09:45:18;21.50;99.90
52543;DHT22;38449;52.696;6.186;2022-07-09T09:47:48;21.50;99.90
52543;DHT22;38449;52.696;6.186;2022-07-09T09:50:19;21.60;99.90
52543;DHT22;38449;52.696;6.186;2022-07-09T09:52:50;21.60;99.90
52543;DHT22;38449;52.696;6.186;2022-07-09T09:55:16;21.50;99.90
52543;DHT22;38449;52.696;6.186;2022-07-09T09:57:42;21.60;99.90
52543;DHT22;38449;52.696;6.186;2022-07-09T10:00:12;21.70;99.90
52543;DHT22;38449;52.696;6.186;2022-07-09T10:02:48;21.70;99.90
52543;DHT22;38449;52.696;6.186;2022-07-09T10:05:14;21.80;99.90
52543;DHT22;38449;52.696;6.186;2022-07-09T10:07:43;21.90;99.90
52543;DHT22;38449;52.696;6.186;2022-07-09T10:10:17;22.10;99.90
52543;DHT22;38449;52.696;6.186;2022-07-09T10:12:43;22.00;99.90
52543;DHT22;38449;52.696;6.186;2022-07-09T10:15:25;22.10;99.90
52543;DHT22;38449;52.696;6.186;2022-07-09T10:17:52;22.10;99.90
52543;DHT22;38449;52.696;6.186;2022-07-09T10:20:32;22.10;99.90
52543;DHT22;38449;52.696;6.186;2022-07-09T10:22:59;22.10;99.90
52543;DHT22;38449;52.696;6.186;2022-07-09T10:25:43;22.10;99.90
52543;DHT22;38449;52.696;6.186;2022-07-09T10:28:17;22.20;99.90
52543;DHT22;38449;52.696;6.186;2022-07-09T10:30:43;22.10;99.90
52543;DHT22;38449;52.696;6.186;2022-07-09T10:33:11;22.20;99.90
52543;DHT22;38449;52.696;6.186;2022-07-09T10:35:45;22.20;99.90
52543;DHT22;38449;52.696;6.186;2022-07-09T10:38:12;22.10;99.90
52543;DHT22;38449;52.696;6.186;2022-07-09T10:43:04;22.00;99.90
52543;DHT22;38449;52.696;6.186;2022-07-09T10:45:40;22.00;99.90
52543;DHT22;38449;52.696;6.186;2022-07-09T10:48:08;22.00;99.90
52543;DHT22;38449;52.696;6.186;2022-07-09T10:50:43;22.00;99.90
52543;DHT22;38449;52.696;6.186;2022-07-09T10:53:10;22.00;99.90
52543;DHT22;38449;52.696;6.186;2022-07-09T10:55:37;21.90;99.90
52543;DHT22;38449;52.696;6.186;2022-07-09T10:58:16;22.00;99.90
52543;DHT22;38449;52.696;6.186;2022-07-09T11:00:42;22.00;99.90
52543;DHT22;38449;52.696;6.186;2022-07-09T11:03:08;22.10;99.90
52543;DHT22;38449;52.696;6.186;2022-07-09T11:05:43;22.10;99.90
52543;DHT22;38449;52.696;6.186;2022-07-09T11:08:09;22.30;99.90
52543;DHT22;38449;52.696;6.186;2022-07-09T11:10:36;22.40;99.90
52543;DHT22;38449;52.696;6.186;2022-07-09T11:13:03;22.30;99.90
52543;DHT22;38449;52.696;6.186;2022-07-09T11:15:31;22.50;99.90
52543;DHT22;38449;52.696;6.186;2022-07-09T11:18:10;22.50;99.90
52543;DHT22;38449;52.696;6.186;2022-07-09T11:20:43;22.30;99.90
52543;DHT22;38449;52.696;6.186;2022-07-09T11:23:14;22.40;99.90
52543;DHT22;38449;52.696;6.186;2022-07-09T11:25:44;22.40;99.90
52543;DHT22;38449;52.696;6.186;2022-07-09T11:28:25;22.60;99.90
52543;DHT22;38449;52.696;6.186;2022-07-09T11:31:03;22.50;99.90
52543;DHT22;38449;52.696;6.186;2022-07-09T11:33:30;22.60;99.90
52543;DHT22;38449;52.696;6.186;2022-07-09T11:36:19;22.40;99.90
52543;DHT22;38449;52.696;6.186;2022-07-09T11:41:13;22.50;99.90
52543;DHT22;38449;52.696;6.186;2022-07-09T11:43:46;22.70;99.90
52543;DHT22;38449;52.696;6.186;2022-07-09T11:46:18;22.70;99.90
52543;DHT22;38449;52.696;6.186;2022-07-09T11:48:50;22.30;99.90
52543;DHT22;38449;52.696;6.186;2022-07-09T11:53:52;22.30;99.90
52543;DHT22;38449;52.696;6.186;2022-07-09T11:56:18;22.50;99.90
52543;DHT22;38449;52.696;6.186;2022-07-09T11:58:50;22.80;99.90
52543;DHT22;38449;52.696;6.186;2022-07-09T12:01:16;22.80;99.90
52543;DHT22;38449;52.696;6.186;2022-07-09T12:03:49;22.70;99.90
52543;DHT22;38449;52.696;6.186;2022-07-09T12:06:15;22.50;99.90
52543;DHT22;38449;52.696;6.186;2022-07-09T12:08:42;22.30;99.90
52543;DHT22;38449;52.696;6.186;2022-07-09T12:11:07;22.10;99.90
52543;DHT22;38449;52.696;6.186;2022-07-09T12:13:33;21.80;99.90
52543;DHT22;38449;52.696;6.186;2022-07-09T12:15:59;21.70;99.90
52543;DHT22;38449;52.696;6.186;2022-07-09T12:18:25;21.60;99.90
52543;DHT22;38449;52.696;6.186;2022-07-09T12:20:51;21.80;99.90
52543;DHT22;38449;52.696;6.186;2022-07-09T12:23:16;21.90;99.90
52543;DHT22;38449;52.696;6.186;2022-07-09T12:25:42;21.90;99.90
52543;DHT22;38449;52.696;6.186;2022-07-09T12:28:08;22.10;99.90
52543;DHT22;38449;52.696;6.186;2022-07-09T12:30:35;22.20;99.90
52543;DHT22;38449;52.696;6.186;2022-07-09T12:33:01;22.30;99.90
52543;DHT22;38449;52.696;6.186;2022-07-09T12:35:27;22.40;99.90
52543;DHT22;38449;52.696;6.186;2022-07-09T12:37:54;22.40;99.90
52543;DHT22;38449;52.696;6.186;2022-07-09T12:40:21;22.10;99.90
52543;DHT22;38449;52.696;6.186;2022-07-09T12:42:47;22.30;99.90
52543;DHT22;38449;52.696;6.186;2022-07-09T12:45:13;22.50;99.90
52543;DHT22;38449;52.696;6.186;2022-07-09T12:47:39;22.70;99.90
52543;DHT22;38449;52.696;6.186;2022-07-09T12:50:05;22.80;99.90
52543;DHT22;38449;52.696;6.186;2022-07-09T12:52:32;22.80;99.90
52543;DHT22;38449;52.696;6.186;2022-07-09T12:54:59;23.10;99.90
52543;DHT22;38449;52.696;6.186;2022-07-09T12:57:26;22.80;99.90
52543;DHT22;38449;52.696;6.186;2022-07-09T12:59:52;22.80;99.90
52543;DHT22;38449;52.696;6.186;2022-07-09T13:02:17;22.60;99.90
52543;DHT22;38449;52.696;6.186;2022-07-09T13:04:43;22.40;99.90
52543;DHT22;38449;52.696;6.186;2022-07-09T13:07:09;22.30;99.90
52543;DHT22;38449;52.696;6.186;2022-07-09T13:09:34;22.20;99.90
52543;DHT22;38449;52.696;6.186;2022-07-09T13:12:00;22.10;99.90
52543;DHT22;38449;52.696;6.186;2022-07-09T13:14:27;22.30;99.90
52543;DHT22;38449;52.696;6.186;2022-07-09T13:16:53;22.40;99.90
52543;DHT22;38449;52.696;6.186;2022-07-09T13:19:19;22.40;99.90
52543;DHT22;38449;52.696;6.186;2022-07-09T13:21:44;22.60;99.90
52543;DHT22;38449;52.696;6.186;2022-07-09T13:24:10;22.70;99.90
52543;DHT22;38449;52.696;6.186;2022-07-09T13:26:36;22.60;99.90
52543;DHT22;38449;52.696;6.186;2022-07-09T13:29:01;22.40;99.90
52543;DHT22;38449;52.696;6.186;2022-07-09T13:31:27;22.40;99.90
52543;DHT22;38449;52.696;6.186;2022-07-09T13:33:52;22.20;99.90
52543;DHT22;38449;52.696;6.186;2022-07-09T13:36:18;22.30;99.90
52543;DHT22;38449;52.696;6.186;2022-07-09T13:38:44;22.30;99.90
52543;DHT22;38449;52.696;6.186;2022-07-09T13:41:10;22.50;99.90
52543;DHT22;38449;52.696;6.186;2022-07-09T13:43:35;22.50;99.90
52543;DHT22;38449;52.696;6.186;2022-07-09T13:46:02;22.70;99.90
52543;DHT22;38449;52.696;6.186;2022-07-09T13:48:29;22.50;99.90
52543;DHT22;38449;52.696;6.186;2022-07-09T13:50:55;22.30;99.90
52543;DHT22;38449;52.696;6.186;2022-07-09T13:53:20;22.30;99.90
52543;DHT22;38449;52.696;6.186;2022-07-09T13:55:46;22.40;99.90
52543;DHT22;38449;52.696;6.186;2022-07-09T13:58:12;22.30;99.90
52543;DHT22;38449;52.696;6.186;2022-07-09T14:00:39;22.20;99.90
52543;DHT22;38449;52.696;6.186;2022-07-09T14:03:05;22.20;99.90
52543;DHT22;38449;52.696;6.186;2022-07-09T14:05:31;22.10;99.90
52543;DHT22;38449;52.696;6.186;2022-07-09T14:07:57;22.20;99.90
52543;DHT22;38449;52.696;6.186;2022-07-09T14:10:24;22.40;99.70
52543;DHT22;38449;52.696;6.186;2022-07-09T14:12:49;22.50;99.80
52543;DHT22;38449;52.696;6.186;2022-07-09T14:15:15;22.50;99.90
52543;DHT22;38449;52.696;6.186;2022-07-09T14:17:42;22.50;99.80
52543;DHT22;38449;52.696;6.186;2022-07-09T14:20:11;22.80;99.80
52543;DHT22;38449;52.696;6.186;2022-07-09T14:22:37;22.50;99.50
52543;DHT22;38449;52.696;6.186;2022-07-09T14:25:03;22.30;99.70
52543;DHT22;38449;52.696;6.186;2022-07-09T14:27:30;22.20;99.90
52543;DHT22;38449;52.696;6.186;2022-07-09T14:29:55;22.10;99.90
52543;DHT22;38449;52.696;6.186;2022-07-09T14:32:21;22.30;99.70
52543;DHT22;38449;52.696;6.186;2022-07-09T14:34:47;22.40;99.50
52543;DHT22;38449;52.696;6.186;2022-07-09T14:37:12;22.40;99.70
52543;DHT22;38449;52.696;6.186;2022-07-09T14:39:38;22.40;99.70
52543;DHT22;38449;52.696;6.186;2022-07-09T14:42:04;22.20;99.60
52543;DHT22;38449;52.696;6.186;2022-07-09T14:44:29;22.20;99.90
52543;DHT22;38449;52.696;6.186;2022-07-09T14:46:56;22.30;99.80
52543;DHT22;38449;52.696;6.186;2022-07-09T14:49:25;22.20;99.60
52543;DHT22;38449;52.696;6.186;2022-07-09T14:51:50;22.10;99.90
52543;DHT22;38449;52.696;6.186;2022-07-09T14:54:17;21.80;99.90
52543;DHT22;38449;52.696;6.186;2022-07-09T14:56:43;21.80;99.90
52543;DHT22;38449;52.696;6.186;2022-07-09T14:59:09;21.80;99.90
52543;DHT22;38449;52.696;6.186;2022-07-09T15:01:38;21.60;99.90
52543;DHT22;38449;52.696;6.186;2022-07-09T15:04:04;21.60;99.90
52543;DHT22;38449;52.696;6.186;2022-07-09T15:06:29;21.70;99.90
52543;DHT22;38449;52.696;6.186;2022-07-09T15:08:55;21.70;99.90
52543;DHT22;38449;52.696;6.186;2022-07-09T15:11:20;21.70;99.90
52543;DHT22;38449;52.696;6.186;2022-07-09T15:13:46;21.60;99.90
52543;DHT22;38449;52.696;6.186;2022-07-09T15:16:12;21.40;99.90
52543;DHT22;38449;52.696;6.186;2022-07-09T15:18:37;21.30;99.90
52543;DHT22;38449;52.696;6.186;2022-07-09T15:21:03;21.10;99.90
52543;DHT22;38449;52.696;6.186;2022-07-09T15:23:30;21.10;99.90
52543;DHT22;38449;52.696;6.186;2022-07-09T15:25:56;21.00;99.90
52543;DHT22;38449;52.696;6.186;2022-07-09T15:28:22;21.10;99.90
52543;DHT22;38449;52.696;6.186;2022-07-09T15:30:48;21.00;99.90
52543;DHT22;38449;52.696;6.186;2022-07-09T15:33:13;20.80;99.90
52543;DHT22;38449;52.696;6.186;2022-07-09T15:35:41;20.80;99.90